Time;durP1;ratioP1;P1;durP2;ratioP2;P2;SDS_P1;SDS_P2;PMS_P1;PMS_P2;Temp;Humidity;BMP_temperature;BMP_pressure;BME280_temperature;BME280_humidity;BME280_pressure;Samples;Min_cycle;Max_cycle;Signal;HPM_P1;HPM_P2
2021/04/27 00:00:20;;;;;;;3.67;1.30;;;9.60;32.90;;;;;;2366848;53;21757;-67
2021/04/27 00:02:46;;;;;;;2.87;1.30;;;9.50;32.90;;;;;;2369680;53;21016;-65
2021/04/27 00:05:15;;;;;;;3.10;1.40;;;9.50;32.90;;;;;;2353082;53;20988;-67
2021/04/27 00:07:41;;;;;;;3.53;1.40;;;9.40;33.00;;;;;;2363903;53;21003;-66
2021/04/27 00:10:10;;;;;;;2.97;1.40;;;9.40;33.10;;;;;;2366505;53;20999;-65
2021/04/27 00:12:36;;;;;;;2.60;1.10;;;9.30;33.10;;;;;;2366852;53;20927;-64
2021/04/27 00:15:05;;;;;;;4.18;1.40;;;9.30;33.10;;;;;;2380944;52;21767;-66
2021/04/27 00:17:32;;;;;;;2.47;0.95;;;9.20;33.30;;;;;;2366812;53;20999;-66
2021/04/27 00:19:58;;;;;;;3.97;1.40;;;9.20;33.40;;;;;;2355854;53;20956;-66
2021/04/27 00:22:24;;;;;;;2.75;1.20;;;9.10;33.30;;;;;;2356778;53;20952;-67
2021/04/27 00:24:50;;;;;;;4.45;1.33;;;9.10;33.50;;;;;;2618381;52;20955;-67
2021/04/27 00:27:16;;;;;;;3.25;1.50;;;9.00;33.50;;;;;;2367178;53;20924;-66
2021/04/27 00:29:43;;;;;;;3.28;1.40;;;9.00;33.50;;;;;;2366478;53;20959;-66
2021/04/27 00:32:09;;;;;;;2.78;1.20;;;8.90;33.40;;;;;;2366781;53;20948;-66
2021/04/27 00:34:35;;;;;;;3.22;1.45;;;8.90;33.50;;;;;;2366610;54;20931;-65
2021/04/27 00:37:02;;;;;;;3.25;1.52;;;8.80;33.60;;;;;;2618094;52;21040;-67
2021/04/27 00:39:28;;;;;;;3.75;1.73;;;8.80;33.80;;;;;;2363586;53;20932;-67
2021/04/27 00:41:54;;;;;;;3.55;1.35;;;8.70;33.80;;;;;;2365765;54;20984;-65
2021/04/27 00:44:20;;;;;;;4.18;1.60;;;8.70;34.00;;;;;;2366017;54;21484;-67
2021/04/27 00:46:47;;;;;;;3.25;1.60;;;8.60;34.00;;;;;;2353461;53;20916;-65
2021/04/27 00:49:13;;;;;;;3.67;1.30;;;8.60;34.30;;;;;;2363663;54;21055;-66
2021/04/27 00:51:39;;;;;;;2.78;1.30;;;8.50;34.20;;;;;;2365613;53;21776;-64
2021/04/27 00:54:07;;;;;;;3.90;1.75;;;8.50;34.30;;;;;;2618089;52;20928;-66
2021/04/27 00:56:34;;;;;;;3.53;1.80;;;8.40;34.50;;;;;;2366614;54;21062;-67
2021/04/27 00:59:02;;;;;;;3.47;1.60;;;8.40;34.50;;;;;;2345942;53;20956;-67
2021/04/27 01:01:28;;;;;;;3.97;1.55;;;8.30;34.60;;;;;;2366808;54;20975;-65
2021/04/27 01:03:54;;;;;;;3.62;1.58;;;8.30;34.60;;;;;;2366205;54;20911;-64
2021/04/27 01:06:21;;;;;;;2.83;1.20;;;8.30;34.70;;;;;;2345430;53;20952;-65
2021/04/27 01:09:09;;;;;;;2.92;1.50;;;8.20;34.70;;;;;;2366574;53;20998;-64
2021/04/27 01:12:36;;;;;;;4.40;1.70;;;8.10;35.10;;;;;;2349582;53;20953;-64
2021/04/27 01:15:13;;;;;;;3.85;1.67;;;8.10;35.60;;;;;;2366841;54;20968;-66
2021/04/27 01:17:39;;;;;;;4.35;1.60;;;8.00;34.90;;;;;;2369715;53;21823;-65
2021/04/27 01:20:33;;;;;;;3.58;1.48;;;8.00;34.80;;;;;;2601456;52;21043;-66
2021/04/27 01:25:41;;;;;;;3.47;1.58;;;7.90;35.40;;;;;;2346302;53;21872;-64
2021/04/27 01:28:07;;;;;;;4.53;1.50;;;7.90;35.10;;;;;;2343810;53;20907;-66
2021/04/27 01:30:38;;;;;;;4.22;1.77;;;7.80;34.80;;;;;;2343013;55;20932;-64
2021/04/27 01:33:06;;;;;;;3.65;1.50;;;7.80;35.10;;;;;;2343113;55;20926;-66
2021/04/27 01:35:32;;;;;;;4.93;1.58;;;7.70;35.20;;;;;;2342970;55;20987;-64
2021/04/27 01:37:59;;;;;;;2.62;1.33;;;7.70;35.20;;;;;;2343439;53;20919;-66
2021/04/27 01:40:25;;;;;;;4.60;1.67;;;7.70;35.20;;;;;;2343008;53;20919;-64
2021/04/27 01:42:51;;;;;;;3.55;1.58;;;7.60;35.20;;;;;;2343565;55;20974;-64
2021/04/27 01:45:18;;;;;;;3.67;1.37;;;7.60;35.40;;;;;;2350599;53;21794;-66
2021/04/27 01:47:44;;;;;;;3.33;1.37;;;7.60;35.70;;;;;;2351608;53;20942;-65
2021/04/27 01:50:10;;;;;;;4.55;1.80;;;7.50;35.70;;;;;;2350330;53;20930;-65
2021/04/27 01:52:37;;;;;;;6.20;1.60;;;7.50;35.90;;;;;;2348318;54;20987;-64
2021/04/27 01:55:07;;;;;;;4.35;1.40;;;7.50;36.00;;;;;;2329965;53;20999;-66
2021/04/27 01:57:33;;;;;;;5.80;1.52;;;7.50;36.10;;;;;;2352439;54;20943;-65
2021/04/27 02:00:00;;;;;;;4.45;1.90;;;7.40;35.90;;;;;;2354596;53;20940;-66
2021/04/27 02:02:32;;;;;;;4.55;1.50;;;7.40;36.00;;;;;;2365269;53;21003;-66
2021/04/27 02:04:58;;;;;;;3.20;1.40;;;7.40;36.10;;;;;;2366219;54;20952;-66
2021/04/27 02:07:24;;;;;;;3.47;1.60;;;7.40;36.10;;;;;;2367110;53;21689;-64
2021/04/27 02:09:51;;;;;;;3.12;1.55;;;7.40;36.10;;;;;;2366466;54;20975;-65
2021/04/27 02:12:21;;;;;;;4.45;1.70;;;7.30;36.00;;;;;;2366398;54;20936;-66
2021/04/27 02:14:47;;;;;;;3.80;1.50;;;7.30;36.20;;;;;;2366759;54;20959;-65
2021/04/27 02:19:51;;;;;;;3.17;1.48;;;7.30;36.10;;;;;;2366478;53;20963;-65
2021/04/27 02:22:17;;;;;;;4.12;1.30;;;7.20;36.70;;;;;;2366589;54;21562;-63
2021/04/27 02:24:43;;;;;;;2.40;1.30;;;7.10;35.80;;;;;;2366381;54;20933;-66
2021/04/27 02:27:13;;;;;;;2.97;1.20;;;7.10;35.90;;;;;;2366722;54;20988;-66
2021/04/27 02:29:39;;;;;;;3.47;1.30;;;7.10;36.00;;;;;;2360429;54;21301;-64
2021/04/27 02:32:06;;;;;;;3.03;1.30;;;7.00;36.00;;;;;;2352177;53;20928;-64
2021/04/27 02:34:32;;;;;;;3.62;1.50;;;7.00;36.00;;;;;;2366483;54;21003;-66
2021/04/27 02:36:58;;;;;;;3.20;1.52;;;6.90;36.00;;;;;;2367048;54;20931;-64
2021/04/27 02:39:24;;;;;;;3.78;1.70;;;6.90;36.20;;;;;;2618082;52;21945;-64
2021/04/27 02:41:51;;;;;;;3.65;1.58;;;6.90;36.40;;;;;;2367043;53;20931;-64
2021/04/27 02:44:17;;;;;;;3.85;1.50;;;6.80;36.30;;;;;;2366597;53;21007;-65
2021/04/27 02:46:44;;;;;;;3.33;1.30;;;6.80;36.30;;;;;;2365414;54;20936;-65
2021/04/27 02:49:10;;;;;;;3.20;1.27;;;6.80;36.50;;;;;;2367073;54;21872;-65
2021/04/27 02:51:37;;;;;;;3.37;1.65;;;6.70;36.40;;;;;;2366404;53;20943;-66
2021/04/27 02:54:03;;;;;;;3.25;1.40;;;6.70;36.50;;;;;;2366279;54;20997;-67
2021/04/27 02:56:30;;;;;;;3.83;1.50;;;6.70;37.10;;;;;;2354634;53;21388;-66
2021/04/27 02:58:56;;;;;;;3.95;1.80;;;6.70;36.50;;;;;;2357821;53;20955;-66
2021/04/27 03:01:23;;;;;;;3.35;1.48;;;6.60;36.60;;;;;;2365620;53;21409;-65
2021/04/27 03:03:49;;;;;;;3.58;1.50;;;6.60;36.70;;;;;;2366333;54;20948;-66
2021/04/27 03:06:15;;;;;;;3.25;1.37;;;6.60;36.80;;;;;;2367110;54;20935;-65
2021/04/27 03:08:41;;;;;;;3.92;1.87;;;6.50;36.60;;;;;;2366171;54;20924;-64
2021/04/27 03:11:07;;;;;;;3.37;1.60;;;6.50;36.70;;;;;;2607455;52;20957;-64
2021/04/27 03:13:37;;;;;;;2.78;1.40;;;6.50;36.90;;;;;;2351007;53;20979;-66
2021/04/27 03:16:03;;;;;;;3.42;1.77;;;6.40;36.90;;;;;;2618071;52;21449;-64
2021/04/27 03:18:30;;;;;;;3.55;1.60;;;6.40;37.00;;;;;;2369080;53;20918;-64
2021/04/27 03:20:56;;;;;;;3.12;1.60;;;6.30;37.00;;;;;;2365745;54;21931;-66
2021/04/27 03:23:22;;;;;;;3.72;1.67;;;6.30;37.20;;;;;;2366885;54;20992;-66
2021/04/27 03:25:49;;;;;;;3.90;1.50;;;6.30;37.20;;;;;;2366127;54;20952;-66
2021/04/27 03:28:15;;;;;;;3.55;1.50;;;6.20;37.10;;;;;;2366796;54;20947;-67
2021/04/27 03:30:41;;;;;;;3.05;1.48;;;6.20;37.10;;;;;;2365908;54;20932;-66
2021/04/27 03:33:08;;;;;;;4.75;1.50;;;6.20;37.20;;;;;;2614618;52;20952;-66
2021/04/27 03:35:34;;;;;;;3.10;1.37;;;6.10;37.30;;;;;;2370028;54;20983;-66
2021/04/27 03:38:00;;;;;;;3.37;1.50;;;6.10;37.40;;;;;;2365286;53;20935;-66
2021/04/27 03:40:27;;;;;;;3.40;1.30;;;6.10;37.50;;;;;;2364033;54;20936;-66
2021/04/27 03:42:53;;;;;;;4.05;1.20;;;6.10;37.60;;;;;;2352443;53;21669;-64
2021/04/27 03:45:21;;;;;;;2.78;1.17;;;6.00;37.40;;;;;;2352779;53;20867;-66
2021/04/27 03:47:47;;;;;;;3.03;1.35;;;6.00;37.50;;;;;;2365783;54;20967;-67
2021/04/27 03:50:18;;;;;;;3.37;1.60;;;6.00;37.60;;;;;;2361109;53;21110;-66
2021/04/27 03:52:49;;;;;;;3.75;1.60;;;6.00;37.80;;;;;;2364636;54;20960;-64
2021/04/27 03:55:18;;;;;;;3.87;1.33;;;6.00;37.90;;;;;;2350911;53;21017;-65
2021/04/27 03:57:44;;;;;;;3.35;1.62;;;5.90;37.70;;;;;;2616912;52;20928;-66
2021/04/27 04:00:12;;;;;;;3.28;1.50;;;5.90;37.70;;;;;;2366146;54;21035;-65
2021/04/27 04:02:38;;;;;;;4.12;1.50;;;5.90;37.90;;;;;;2366140;54;20971;-64
2021/04/27 04:05:05;;;;;;;3.05;1.40;;;5.90;37.90;;;;;;2357389;53;21471;-65
2021/04/27 04:07:31;;;;;;;5.03;1.50;;;5.80;37.90;;;;;;2355416;53;20920;-66
2021/04/27 04:09:57;;;;;;;3.75;1.73;;;5.80;37.80;;;;;;2366281;53;20924;-65
2021/04/27 04:12:24;;;;;;;3.33;1.70;;;5.80;37.80;;;;;;2369616;54;20922;-66
2021/04/27 04:14:53;;;;;;;4.22;1.55;;;5.80;37.90;;;;;;2365693;53;20912;-65
2021/04/27 04:17:19;;;;;;;3.00;1.67;;;5.80;38.00;;;;;;2366535;53;21087;-66
2021/04/27 04:19:47;;;;;;;3.20;1.37;;;5.70;38.00;;;;;;2614331;52;21059;-64
2021/04/27 04:22:15;;;;;;;4.12;1.73;;;5.70;38.00;;;;;;2342345;53;20948;-66
2021/04/27 04:25:04;;;;;;;3.20;1.37;;;5.70;38.00;;;;;;2365641;53;21034;-64
2021/04/27 04:27:32;;;;;;;4.10;1.77;;;5.70;38.50;;;;;;2355108;53;21820;-66
2021/04/27 04:29:59;;;;;;;4.18;1.70;;;5.70;38.20;;;;;;2319674;54;20963;-67
2021/04/27 04:32:25;;;;;;;3.30;1.60;;;5.60;38.20;;;;;;2345045;54;20993;-66
2021/04/27 04:34:52;;;;;;;3.65;1.67;;;5.60;38.20;;;;;;2342055;53;21057;-64
2021/04/27 04:37:19;;;;;;;3.75;1.60;;;5.60;38.20;;;;;;2337423;53;21012;-64
2021/04/27 04:39:45;;;;;;;4.47;1.40;;;5.60;38.30;;;;;;2332991;53;21050;-65
2021/04/27 04:42:12;;;;;;;2.72;1.30;;;5.60;38.30;;;;;;2589150;53;20935;-65
2021/04/27 04:44:41;;;;;;;3.33;1.55;;;5.60;38.40;;;;;;2330970;54;20921;-66
2021/04/27 04:47:07;;;;;;;4.05;1.60;;;5.60;38.50;;;;;;2347896;54;20986;-64
2021/04/27 04:49:33;;;;;;;4.32;1.77;;;5.60;38.50;;;;;;2365336;54;20937;-65
2021/04/27 04:51:59;;;;;;;3.30;1.40;;;5.60;38.60;;;;;;2363018;54;20954;-66
2021/04/27 04:54:26;;;;;;;3.40;1.58;;;5.60;38.70;;;;;;2370007;54;20954;-65
2021/04/27 04:56:55;;;;;;;5.65;1.85;;;5.60;38.70;;;;;;2606406;52;21418;-64
2021/04/27 04:59:22;;;;;;;3.65;1.58;;;5.70;39.00;;;;;;2356860;53;20953;-64
2021/04/27 05:01:48;;;;;;;5.90;1.65;;;5.70;39.10;;;;;;2355328;53;20985;-66
2021/04/27 05:04:15;;;;;;;3.60;1.40;;;5.70;39.10;;;;;;2623006;52;20989;-65
2021/04/27 05:06:43;;;;;;;3.37;1.52;;;5.80;39.20;;;;;;2372439;53;20938;-66
2021/04/27 05:09:13;;;;;;;3.65;1.52;;;5.80;39.10;;;;;;2348528;53;20941;-64
2021/04/27 05:11:43;;;;;;;4.53;1.80;;;5.80;39.20;;;;;;2371154;54;21367;-66
2021/04/27 05:14:09;;;;;;;3.53;1.50;;;5.90;39.30;;;;;;2547978;52;20934;-64
2021/04/27 05:16:36;;;;;;;5.05;2.00;;;5.90;39.30;;;;;;2350545;53;21912;-67
2021/04/27 05:19:02;;;;;;;5.15;2.03;;;6.00;39.40;;;;;;2369448;54;20913;-65
2021/04/27 05:21:29;;;;;;;4.35;2.28;;;6.00;39.50;;;;;;2346766;53;21028;-66
2021/04/27 05:23:55;;;;;;;4.93;1.98;;;6.00;39.60;;;;;;2363987;53;20964;-64
2021/04/27 05:26:22;;;;;;;4.15;2.00;;;6.10;39.80;;;;;;2357307;53;20967;-65
2021/04/27 05:28:48;;;;;;;3.67;1.92;;;6.20;39.80;;;;;;2371395;54;20942;-64
2021/04/27 05:31:15;;;;;;;4.37;2.08;;;6.20;39.90;;;;;;2624368;52;20966;-64
2021/04/27 05:33:41;;;;;;;4.65;1.75;;;6.30;40.00;;;;;;2371265;54;20933;-66
2021/04/27 05:36:07;;;;;;;3.58;1.87;;;6.30;40.00;;;;;;2450897;52;20938;-64
2021/04/27 05:38:34;;;;;;;3.87;1.73;;;6.40;40.10;;;;;;2371489;53;21042;-66
2021/04/27 05:41:00;;;;;;;4.37;2.03;;;6.50;40.20;;;;;;2371071;53;21395;-65
2021/04/27 05:43:26;;;;;;;4.47;1.77;;;6.50;40.10;;;;;;2623902;52;20921;-65
2021/04/27 05:45:53;;;;;;;3.58;1.70;;;6.60;40.30;;;;;;2371767;54;21338;-67
2021/04/27 05:48:19;;;;;;;4.97;2.03;;;6.60;40.30;;;;;;2371401;54;20922;-65
2021/04/27 05:50:45;;;;;;;3.92;1.90;;;6.70;40.40;;;;;;2371195;53;20926;-66
2021/04/27 05:53:11;;;;;;;5.10;2.10;;;6.80;40.50;;;;;;2371884;54;20978;-66
2021/04/27 05:55:40;;;;;;;3.95;1.80;;;6.90;40.60;;;;;;2443445;52;21750;-65
2021/04/27 05:58:07;;;;;;;2.80;1.50;;;7.00;40.60;;;;;;2353831;53;20962;-65
2021/04/27 06:00:34;;;;;;;3.50;1.67;;;7.00;40.50;;;;;;2371282;53;21009;-64
2021/04/27 06:03:04;;;;;;;3.25;1.37;;;7.10;40.40;;;;;;2371669;54;20894;-66
2021/04/27 06:05:31;;;;;;;2.97;1.30;;;7.20;40.40;;;;;;2371581;54;20977;-66
2021/04/27 06:07:57;;;;;;;4.32;1.60;;;7.30;40.40;;;;;;2350681;53;20948;-65
2021/04/27 06:10:26;;;;;;;3.67;1.60;;;7.40;40.40;;;;;;2359814;53;20925;-66
2021/04/27 06:12:55;;;;;;;3.53;1.50;;;7.50;40.40;;;;;;2362809;53;20989;-65
2021/04/27 06:15:22;;;;;;;3.92;1.52;;;7.60;40.30;;;;;;2392333;52;21045;-66
2021/04/27 06:17:50;;;;;;;4.30;1.62;;;7.70;40.20;;;;;;2371455;53;20924;-64
2021/04/27 06:20:16;;;;;;;3.65;1.73;;;7.80;40.10;;;;;;2371369;53;23160;-66
2021/04/27 06:22:42;;;;;;;5.32;1.48;;;7.90;40.00;;;;;;2371121;54;21823;-64
2021/04/27 06:25:11;;;;;;;4.65;1.50;;;8.00;40.00;;;;;;2624634;52;20953;-66
2021/04/27 06:27:37;;;;;;;3.67;1.58;;;8.10;39.90;;;;;;2351579;53;20987;-67
2021/04/27 06:30:07;;;;;;;3.35;1.60;;;8.10;39.80;;;;;;2476167;52;20933;-66
2021/04/27 06:32:34;;;;;;;4.22;1.60;;;8.20;39.80;;;;;;2371141;54;20913;-66
2021/04/27 06:35:01;;;;;;;3.95;1.77;;;8.30;39.70;;;;;;2371994;53;21040;-65
2021/04/27 06:37:28;;;;;;;2.80;1.37;;;8.40;39.70;;;;;;2373544;54;21022;-66
2021/04/27 06:39:54;;;;;;;3.35;1.65;;;8.50;39.70;;;;;;2347486;53;21293;-65
2021/04/27 06:42:20;;;;;;;4.47;1.77;;;8.60;39.80;;;;;;2602772;52;20946;-66
2021/04/27 06:44:46;;;;;;;3.97;1.62;;;8.70;39.80;;;;;;2365887;53;20957;-65
2021/04/27 06:47:13;;;;;;;4.03;1.55;;;8.80;39.90;;;;;;2372078;53;21069;-67
2021/04/27 06:49:39;;;;;;;4.05;1.30;;;8.90;39.90;;;;;;2370721;54;21880;-66
2021/04/27 06:52:06;;;;;;;3.70;1.52;;;9.00;39.90;;;;;;2371655;53;20953;-65
2021/04/27 06:54:32;;;;;;;3.10;1.48;;;9.20;40.00;;;;;;2370843;53;21081;-67
2021/04/27 06:56:58;;;;;;;9.40;1.77;;;9.30;40.30;;;;;;2624464;52;21653;-66
2021/04/27 06:59:32;;;;;;;3.03;1.50;;;9.60;41.20;;;;;;2623857;52;20974;-65
2021/04/27 07:01:59;;;;;;;2.47;1.20;;;10.00;41.10;;;;;;2372200;53;21582;-67
2021/04/27 07:04:26;;;;;;;3.47;1.70;;;10.40;41.80;;;;;;2371490;54;20934;-67
2021/04/27 07:06:52;;;;;;;4.50;1.80;;;10.80;42.30;;;;;;2371178;54;20942;-66
2021/04/27 07:09:18;;;;;;;3.25;1.62;;;11.30;42.80;;;;;;2368177;54;21008;-67
2021/04/27 07:11:45;;;;;;;2.90;1.60;;;11.80;43.20;;;;;;2354552;53;21037;-65
2021/04/27 07:14:11;;;;;;;2.97;1.50;;;12.40;43.70;;;;;;2371633;54;20981;-67
2021/04/27 07:16:37;;;;;;;3.42;1.60;;;13.00;43.80;;;;;;2351555;53;21491;-67
2021/04/27 07:19:04;;;;;;;4.85;1.40;;;13.60;43.70;;;;;;2623991;52;20967;-66
2021/04/27 07:21:34;;;;;;;4.90;2.17;;;14.10;43.00;;;;;;2371017;53;21002;-67
2021/04/27 07:24:01;;;;;;;4.43;1.80;;;14.60;42.40;;;;;;2370776;53;21034;-67
2021/04/27 07:26:27;;;;;;;6.18;1.65;;;15.10;42.10;;;;;;2624416;52;20961;-68
2021/04/27 07:28:53;;;;;;;3.58;1.70;;;15.50;41.60;;;;;;2371190;54;20922;-70
2021/04/27 07:31:20;;;;;;;3.60;1.67;;;15.90;41.20;;;;;;2371251;53;21317;-66
2021/04/27 07:33:47;;;;;;;4.90;1.58;;;16.20;40.70;;;;;;2371464;54;21017;-69
2021/04/27 07:36:13;;;;;;;6.12;1.80;;;16.50;40.10;;;;;;2575420;52;20965;-67
2021/04/27 07:38:39;;;;;;;3.28;1.55;;;16.80;39.50;;;;;;2357813;53;21088;-66
2021/04/27 07:41:06;;;;;;;3.35;1.70;;;17.10;39.30;;;;;;2364445;53;20974;-67
2021/04/27 07:43:32;;;;;;;3.15;1.48;;;17.40;39.10;;;;;;2371535;53;21383;-67
2021/04/27 07:45:59;;;;;;;3.17;1.50;;;17.60;38.70;;;;;;2371245;54;21592;-66
2021/04/27 07:48:25;;;;;;;4.85;1.70;;;17.90;37.90;;;;;;2449433;52;3326587;-69
2021/04/27 07:50:52;;;;;;;3.92;1.70;;;18.00;36.80;;;;;;2371147;53;21036;-66
2021/04/27 07:53:18;;;;;;;4.55;1.67;;;18.00;36.00;;;;;;2370666;54;21001;-68
2021/04/27 07:55:45;;;;;;;3.85;1.45;;;18.00;35.30;;;;;;2377089;53;20945;-66
2021/04/27 07:58:11;;;;;;;3.35;1.62;;;17.90;34.70;;;;;;2340244;54;20930;-66
2021/04/27 08:00:37;;;;;;;3.58;1.65;;;17.80;34.40;;;;;;2374467;53;21781;-66
2021/04/27 08:03:04;;;;;;;4.93;1.90;;;17.60;34.10;;;;;;2371036;53;21526;-66
2021/04/27 08:05:30;;;;;;;3.10;1.52;;;17.50;33.70;;;;;;2366804;53;20961;-68
2021/04/27 08:07:56;;;;;;;3.60;1.60;;;17.30;33.50;;;;;;2356850;53;21012;-68
2021/04/27 08:10:23;;;;;;;3.90;1.60;;;17.20;33.40;;;;;;2369699;53;20949;-69
2021/04/27 08:12:50;;;;;;;3.85;1.75;;;17.10;33.40;;;;;;2368256;53;21072;-67
2021/04/27 08:15:18;;;;;;;4.05;1.67;;;17.00;33.50;;;;;;2352401;53;21028;-66
2021/04/27 08:17:45;;;;;;;4.43;1.70;;;16.90;33.50;;;;;;2353474;53;20918;-67
2021/04/27 08:20:12;;;;;;;4.22;1.77;;;16.90;33.60;;;;;;2371562;53;20970;-66
2021/04/27 08:22:38;;;;;;;3.33;1.65;;;16.90;34.00;;;;;;2353178;54;20960;-67
2021/04/27 08:25:05;;;;;;;3.70;1.60;;;17.00;34.30;;;;;;2364297;53;20949;-66
2021/04/27 08:27:32;;;;;;;2.97;1.40;;;17.20;35.00;;;;;;2357767;53;20922;-66
2021/04/27 08:29:58;;;;;;;3.67;1.50;;;17.40;35.50;;;;;;2371590;53;20928;-67
2021/04/27 08:32:25;;;;;;;3.92;1.90;;;17.60;35.60;;;;;;2623421;52;21023;-67
2021/04/27 08:34:52;;;;;;;4.07;1.60;;;17.90;35.50;;;;;;2350583;53;21730;-67
2021/04/27 08:37:18;;;;;;;4.68;1.70;;;18.10;35.20;;;;;;2369752;53;20940;-66
2021/04/27 08:39:44;;;;;;;3.75;1.73;;;18.30;34.90;;;;;;2588551;52;20920;-69
2021/04/27 08:42:11;;;;;;;3.45;1.50;;;18.40;34.40;;;;;;2365896;53;20946;-68
2021/04/27 08:44:39;;;;;;;4.35;2.10;;;18.50;34.00;;;;;;2410485;52;21058;-67
2021/04/27 08:47:09;;;;;;;4.28;1.73;;;18.60;33.60;;;;;;2372275;53;21013;-68
2021/04/27 08:49:38;;;;;;;3.25;1.75;;;18.60;33.40;;;;;;2371551;54;20949;-68
2021/04/27 08:52:05;;;;;;;3.92;2.03;;;18.60;33.20;;;;;;2371948;54;21387;-66
2021/04/27 08:54:34;;;;;;;5.47;1.73;;;18.60;33.10;;;;;;2371479;53;21033;-67
2021/04/27 08:57:03;;;;;;;4.50;2.05;;;18.60;32.80;;;;;;2372122;54;20937;-68
2021/04/27 08:59:29;;;;;;;4.00;1.87;;;18.60;32.80;;;;;;2550115;52;20950;-66
2021/04/27 09:01:56;;;;;;;5.85;1.67;;;18.70;33.00;;;;;;2350635;53;21991;-69
2021/04/27 09:04:45;;;;;;;3.72;2.00;;;18.70;33.30;;;;;;2402799;52;20981;-69
2021/04/27 09:07:24;;;;;;;6.50;2.08;;;18.80;32.80;;;;;;2350912;52;20942;-68
2021/04/27 09:09:58;;;;;;;3.97;1.80;;;18.90;33.30;;;;;;2371295;54;20946;-66
2021/04/27 09:12:29;;;;;;;5.97;2.10;;;19.00;33.50;;;;;;2367947;54;20996;-69
2021/04/27 09:14:56;;;;;;;4.45;2.00;;;19.10;33.00;;;;;;2355689;53;20962;-68
2021/04/27 09:17:27;;;;;;;4.82;2.00;;;19.30;33.00;;;;;;2351919;53;20913;-66
2021/04/27 09:19:54;;;;;;;6.37;2.90;;;19.50;32.70;;;;;;2372647;53;20911;-68
2021/04/27 09:22:30;;;;;;;3.55;1.92;;;19.60;32.80;;;;;;2374749;53;21563;-68
2021/04/27 09:25:00;;;;;;;3.25;1.77;;;19.70;32.40;;;;;;2367199;53;21321;-66
2021/04/27 09:27:31;;;;;;;4.03;2.08;;;19.80;32.10;;;;;;2349053;53;20911;-67
2021/04/27 09:30:09;;;;;;;4.53;2.20;;;19.80;31.60;;;;;;2356385;53;20932;-67
2021/04/27 09:32:38;;;;;;;7.45;2.40;;;19.80;31.30;;;;;;2363877;53;21025;-69
2021/04/27 09:35:28;;;;;;;4.25;2.12;;;19.80;31.00;;;;;;2357576;53;20942;-66
2021/04/27 09:38:22;;;;;;;5.12;2.20;;;19.70;30.90;;;;;;2603138;52;20952;-66
2021/04/27 09:41:58;;;;;;;3.67;2.05;;;19.60;30.70;;;;;;2355881;53;21470;-68
2021/04/27 09:44:28;;;;;;;4.32;2.05;;;19.70;31.00;;;;;;2373428;54;20991;-68
2021/04/27 09:47:26;;;;;;;3.60;1.98;;;19.70;31.40;;;;;;2348206;53;20981;-66
2021/04/27 09:49:58;;;;;;;3.70;1.87;;;19.70;31.00;;;;;;2374152;53;20989;-68
2021/04/27 09:52:26;;;;;;;3.53;1.95;;;19.70;31.40;;;;;;2620739;52;21081;-66
2021/04/27 09:55:10;;;;;;;5.85;2.75;;;19.80;31.30;;;;;;2364857;53;20994;-67
2021/04/27 09:57:58;;;;;;;4.07;2.25;;;19.80;31.10;;;;;;2359825;54;20985;-67
2021/04/27 10:00:38;;;;;;;3.70;2.00;;;19.80;31.40;;;;;;2367174;53;20953;-68
2021/04/27 10:03:12;;;;;;;2.83;1.65;;;19.90;32.20;;;;;;2565149;52;22271;-68
2021/04/27 10:05:39;;;;;;;3.72;2.12;;;20.10;32.70;;;;;;2354060;53;20992;-68
2021/04/27 10:08:07;;;;;;;3.80;2.17;;;20.40;33.20;;;;;;2357455;54;20929;-68
2021/04/27 10:10:34;;;;;;;4.20;2.30;;;20.60;33.10;;;;;;2624218;52;20902;-67
2021/04/27 10:13:01;;;;;;;4.60;2.12;;;20.80;32.50;;;;;;2351900;53;20925;-69
2021/04/27 10:15:27;;;;;;;4.85;2.05;;;21.10;32.20;;;;;;2371032;53;21041;-70
2021/04/27 10:17:55;;;;;;;4.62;2.12;;;21.20;31.90;;;;;;2371224;54;20997;-66
2021/04/27 10:20:21;;;;;;;4.15;2.30;;;21.40;31.60;;;;;;2624750;52;21427;-68
2021/04/27 10:22:48;;;;;;;4.35;2.00;;;21.50;31.40;;;;;;2354101;53;21598;-68
2021/04/27 10:25:22;;;;;;;5.37;2.05;;;21.60;31.20;;;;;;2357864;53;20970;-67
2021/04/27 10:28:05;;;;;;;3.85;2.28;;;21.70;30.70;;;;;;2371225;54;20938;-68
2021/04/27 10:30:44;;;;;;;5.90;2.37;;;21.80;30.30;;;;;;2371580;53;20959;-67
2021/04/27 10:33:13;;;;;;;5.90;2.72;;;21.80;30.20;;;;;;2372401;54;20986;-69
2021/04/27 10:35:44;;;;;;;4.50;2.55;;;21.90;30.40;;;;;;2371453;54;20926;-70
2021/04/27 10:38:12;;;;;;;;;;;21.90;30.40;;;;;;2375078;54;20982;-67
2021/04/27 10:41:03;;;;;;;5.03;2.17;;;22.10;30.60;;;;;;2600510;52;20058;-67
2021/04/27 10:43:32;;;;;;;4.80;2.40;;;22.20;30.50;;;;;;2370491;53;20941;-68
2021/04/27 10:46:03;;;;;;;3.83;2.37;;;22.40;31.00;;;;;;2420814;53;20935;-67
2021/04/27 10:48:37;;;;;;;6.07;2.20;;;22.50;31.00;;;;;;2355803;54;21522;-67
2021/04/27 10:54:37;;;;;;;4.22;2.05;;;22.80;30.80;;;;;;2558792;52;21004;-67
2021/04/27 10:57:13;;;;;;;4.37;1.90;;;23.10;30.20;;;;;;2372549;53;21002;-69
2021/04/27 11:00:42;;;;;;;3.55;2.15;;;23.10;29.90;;;;;;2346625;53;20971;-68
2021/04/27 11:03:27;;;;;;;3.45;2.10;;;23.10;29.50;;;;;;2356893;53;21037;-69
2021/04/27 11:06:12;;;;;;;4.25;2.55;;;23.10;28.80;;;;;;2366337;53;21736;-68
2021/04/27 11:08:52;;;;;;;4.85;2.30;;;23.00;29.50;;;;;;2370061;54;21005;-67
2021/04/27 11:11:36;;;;;;;6.05;2.70;;;23.00;29.00;;;;;;2371902;53;20906;-69
2021/04/27 11:14:21;;;;;;;4.55;2.78;;;22.90;28.60;;;;;;2624246;52;21002;-67
2021/04/27 11:16:57;;;;;;;4.85;2.50;;;22.90;28.60;;;;;;2370194;53;20902;-69
2021/04/27 11:19:41;;;;;;;4.60;2.33;;;23.00;28.80;;;;;;2379329;52;21012;-68
2021/04/27 11:22:18;;;;;;;4.12;2.20;;;23.10;29.00;;;;;;2368193;53;21001;-67
2021/04/27 11:24:46;;;;;;;4.57;2.60;;;23.20;29.00;;;;;;2357430;53;20986;-70
2021/04/27 11:27:33;;;;;;;4.43;2.42;;;23.30;29.30;;;;;;2371442;54;21371;-67
2021/04/27 11:30:11;;;;;;;3.95;2.47;;;23.40;28.80;;;;;;2350211;53;20980;-70
2021/04/27 11:32:41;;;;;;;5.57;2.40;;;23.50;28.90;;;;;;2367496;53;20957;-68
2021/04/27 11:35:21;;;;;;;8.20;3.03;;;23.60;29.00;;;;;;2356419;53;21021;-68
2021/04/27 11:37:52;;;;;;;4.07;2.58;;;23.60;28.90;;;;;;2351599;53;20969;-67
2021/04/27 11:40:37;;;;;;;3.72;2.33;;;23.80;28.80;;;;;;2371174;54;20945;-70
2021/04/27 11:43:10;;;;;;;4.93;2.90;;;23.80;28.30;;;;;;2360284;53;21044;-69
2021/04/27 11:45:47;;;;;;;5.32;2.75;;;23.90;28.60;;;;;;2361887;53;20985;-68
2021/04/27 11:48:17;;;;;;;4.20;2.80;;;23.90;28.00;;;;;;2371708;54;20962;-68
2021/04/27 11:50:44;;;;;;;4.65;2.70;;;23.90;28.50;;;;;;2348890;53;20944;-70
2021/04/27 11:53:16;;;;;;;4.95;2.60;;;23.80;27.90;;;;;;2370666;53;20930;-67
2021/04/27 11:55:51;;;;;;;3.83;2.43;;;23.80;27.60;;;;;;2370973;53;20946;-69
2021/04/27 11:58:30;;;;;;;7.03;2.70;;;23.80;27.60;;;;;;2370742;54;20954;-69
2021/04/27 12:01:07;;;;;;;4.87;2.60;;;23.80;27.20;;;;;;2594509;52;21896;-69
2021/04/27 12:03:46;;;;;;;5.82;2.83;;;23.80;27.40;;;;;;2353470;53;21008;-70
2021/04/27 12:06:16;;;;;;;4.45;2.53;;;23.80;27.00;;;;;;2367923;53;21768;-68
2021/04/27 12:08:45;;;;;;;4.82;2.75;;;23.80;27.50;;;;;;2370755;54;21789;-67
2021/04/27 12:11:33;;;;;;;6.07;3.03;;;23.80;27.70;;;;;;2360116;53;21076;-69
2021/04/27 12:14:10;;;;;;;5.72;2.97;;;23.90;27.60;;;;;;2347836;53;20922;-69
2021/04/27 12:16:38;;;;;;;4.68;2.85;;;23.90;27.90;;;;;;2600189;52;20921;-69
2021/04/27 12:19:23;;;;;;;3.72;2.37;;;24.10;28.20;;;;;;2347090;53;20919;-67
2021/04/27 12:22:06;;;;;;;3.75;2.45;;;24.30;27.80;;;;;;2370854;54;20937;-66
2021/04/27 12:24:35;;;;;;;5.45;2.53;;;24.40;27.60;;;;;;2489665;53;20962;-68
2021/04/27 12:27:22;;;;;;;4.72;2.85;;;24.50;28.00;;;;;;2371025;53;20993;-68
2021/04/27 12:30:09;;;;;;;4.40;2.60;;;24.70;27.50;;;;;;2371133;54;20965;-69
2021/04/27 12:32:37;;;;;;;4.65;2.58;;;24.90;27.90;;;;;;2354442;53;20986;-67
2021/04/27 12:35:07;;;;;;;4.20;2.58;;;24.90;28.00;;;;;;2372875;54;20981;-68
2021/04/27 12:37:44;;;;;;;4.40;2.47;;;25.00;27.60;;;;;;2371030;53;20962;-67
2021/04/27 12:40:19;;;;;;;6.95;2.83;;;25.10;27.00;;;;;;2375132;53;20997;-69
2021/04/27 12:43:04;;;;;;;5.32;3.15;;;25.20;26.60;;;;;;2370140;53;20942;-69
2021/04/27 12:46:31;;;;;;;5.03;2.53;;;25.20;26.60;;;;;;2445360;53;21779;-68
2021/04/27 12:48:57;;;;;;;5.12;2.90;;;25.10;26.40;;;;;;2370989;53;20965;-69
2021/04/27 12:51:27;;;;;;;5.12;2.75;;;25.10;26.20;;;;;;2371107;53;20934;-67
2021/04/27 12:53:53;;;;;;;6.10;2.70;;;25.00;25.90;;;;;;2371221;54;21021;-68
2021/04/27 12:56:20;;;;;;;6.20;2.87;;;25.00;26.10;;;;;;2370857;54;21819;-70
2021/04/27 12:58:48;;;;;;;5.32;2.50;;;24.90;26.10;;;;;;2370927;54;20914;-69
2021/04/27 13:01:21;;;;;;;6.82;2.97;;;24.90;26.10;;;;;;2369760;54;20953;-67
2021/04/27 13:03:56;;;;;;;4.62;2.90;;;24.80;25.90;;;;;;2371321;54;21792;-69
2021/04/27 13:06:32;;;;;;;5.47;2.70;;;24.80;25.90;;;;;;2370558;54;21354;-69
2021/04/27 13:09:05;;;;;;;5.18;3.22;;;24.80;25.80;;;;;;2352469;53;21569;-67
2021/04/27 13:11:32;;;;;;;4.78;2.92;;;24.70;25.60;;;;;;2371757;54;21366;-68
2021/04/27 13:14:23;;;;;;;5.65;3.15;;;24.60;25.80;;;;;;2623701;52;21755;-68
2021/04/27 13:16:51;;;;;;;5.03;2.97;;;24.60;26.10;;;;;;2360492;53;21028;-66